Sandy Bay Township, Maine
Current Conditions -  °F | °C
As of 4:33 PM on Thursday 23 Oct 2014 (Local Time) from CYSC Reporting Station
Overcast Overcast  
Wind Chill: 40°   Ceiling: 600
Heat Index: 45°   Visibility: 6mi
Dew Point: 43°   Wind: 9mph
Humidity: 93%   Direction: 30°NNE
Pressure: 29.92"   Gusts: 17mph
Location:  45.7142°N, 70.304°W
Report Text: CYSC 232033Z AUTO 03008G15KT 350V060 6SM BKN006 OVC018 07/06 A2992 RMK PCPN 1.2MM PAST HR WX MISG VIS MISG PCPN MISG SLP138
Loading
Personal Weather Stations






























Interactive Weather Map
Tropical Storm Tracking
New forecast layout! Learn more

10-Day Weather Forecast

Advertisements
Track Severe Weather on mobile